Lilypad — WDD9770 — position and weather

sailwx.info

Track history (hours):
 
Tides and Currents Weather Stations Pressure Air Temp Water Temp Dewpoint Dewpoint Depression Visibility Wind Speed Wind Dir Waves Ship Positions

Lilypad

Owner: weippert, don w, Yakima, WA. More information available from US FCC via Universal Licensing System and Coast Guard Vessel Documentation Center.

Last reported at 2016-Nov-27 04:33 UTC. Time now 2016-Dec-11 08:11 UTC.
Position N 47°41' W 122°24'.
Warning: this ship's position is 14 days out of date.

Length 18 m; draft 2 m.

Type: Pleasure craft. MMSI: 367316110.

Date/timePositionNaut miles runAvg speedWind from/ knotsBaromVisibWave heightAir tempDewpointWater temp
2016-Nov-27 04:33N 47°41' W 122°24'3 2.5
2016-Nov-27 03:34N 47°39' W 122°22'2 1.6
2016-Nov-27 02:34N 47°38' W 122°20'0 0.4
2016-Nov-27 01:34N 47°38' W 122°20'2 2.3
2016-Nov-27 00:34N 47°40' W 122°22'3 2.6
2016-Nov-26 23:34N 47°41' W 122°26'1 1.0
2016-Nov-26 22:34N 47°41' W 122°24'  
2016-Nov-19 05:33N 47°41' W 122°24'0 0.0
2016-Nov-19 04:33N 47°41' W 122°24'0 0.0
2016-Nov-19 03:33N 47°41' W 122°24'0 0.0
2016-Nov-19 02:33N 47°41' W 122°24'0 0.0
2016-Nov-19 01:33N 47°41' W 122°24'0 0.0
2016-Nov-19 00:33N 47°41' W 122°24'0 0.0
2016-Nov-18 23:33N 47°41' W 122°24'0 0.0
2016-Nov-18 20:33N 47°41' W 122°24'0 0.0
2016-Nov-18 18:33N 47°41' W 122°24'0 0.0
2016-Nov-18 17:33N 47°41' W 122°24'  
Track history (hours):
 
Tides and Currents Weather Stations Pressure Air Temp Water Temp Dewpoint Dewpoint Depression Visibility Wind Speed Wind Dir Waves Ship Positions

Lilypad

Owner: weippert, don w, Yakima, WA. More information available from US FCC via Universal Licensing System and Coast Guard Vessel Documentation Center.

Last reported at 2016-Nov-27 04:33 UTC. Time now 2016-Dec-11 08:11 UTC.
Position N 47°41' W 122°24'.
Warning: this ship's position is 14 days out of date.

Length 18 m; draft 2 m.

Type: Pleasure craft. MMSI: 367316110.

Date/timePositionNaut miles runAvg speedWind from/ knotsBaromVisibWave heightAir tempDewpointWater temp
2016-Nov-27 04:33N 47°41' W 122°24'3 2.5
2016-Nov-27 03:34N 47°39' W 122°22'2 1.6
2016-Nov-27 02:34N 47°38' W 122°20'0 0.4
2016-Nov-27 01:34N 47°38' W 122°20'2 2.3
2016-Nov-27 00:34N 47°40' W 122°22'3 2.6
2016-Nov-26 23:34N 47°41' W 122°26'1 1.0
2016-Nov-26 22:34N 47°41' W 122°24'  
2016-Nov-19 05:33N 47°41' W 122°24'0 0.0
2016-Nov-19 04:33N 47°41' W 122°24'0 0.0
2016-Nov-19 03:33N 47°41' W 122°24'0 0.0
2016-Nov-19 02:33N 47°41' W 122°24'0 0.0
2016-Nov-19 01:33N 47°41' W 122°24'0 0.0
2016-Nov-19 00:33N 47°41' W 122°24'0 0.0
2016-Nov-18 23:33N 47°41' W 122°24'0 0.0
2016-Nov-18 20:33N 47°41' W 122°24'0 0.0
2016-Nov-18 18:33N 47°41' W 122°24'0 0.0
2016-Nov-18 17:33N 47°41' W 122°24'  

Dump ship's entire track history